TOS-028磁力链 MXGS-608 277DCV-028

本格レズ 性感レズバーに酔うオフィスレディたち
‭(028) 催收TOS S03D07 8.73GB收录时间:2017-04-17 大小:8.73GB 文件个数:76 链接 女优 1.ppt-028 2.SSNI-媚薬 3.VICD105 4.m736 5.DVAJ-138 6.FINH-062
603028笔记本电池 桑格笔记本电池 TOS PA248… 笔记本电池 桑格笔记本电池 TOS PA2487U联系电话:028-86317398
dior028奇幻世界系列的救世主之樹(暫)資訊交流平台! TOS :: 奇幻之樹;提供 救世者之樹 Tree of Savior 的資訊與交流服務,所有文章以 CC授權 姓名標示─非商業性─
028是哪里的区号2018年12月31日 - DOC72 Tromso, Langnes (TOS / ENTC) 23:11 CET 00:01 CET (+1) (?ENTC 010520Z 06017KT 9999 FEW028 SCT039 M02/M06 Q0989 RMK WIND 2600
迪奥0282018年9月18日 - Tromso/Langnes Airport(特罗姆斯机场)位于Europe挪威特罗姆斯,经度:69.6833,纬度:18.9189,IATA Code(三字码)是TOS, ICAO Code(四字码)是ENTC。特罗姆
0010282018年12月27日 - 12/28/2013 TOS 5.29GB 33 04/17/2017 TOS S03D07 8.73GB 76 07/SPL-028 88.ONSD-556 89.TOMN-057 90.YGF-001 91.XV-455 92.CS-971 93
028区号tos区块链,低风险,收益稳定,随存随取,安全稳健,为8亿用户精选的理财产品!理财低风险,更灵活!
迪奥028是什么颜色意大利TOS,TOS益流阀,ATOS电磁阀,ATOS放大器 意大利TOS,TOS益流阀,ATOS电磁阀,ATOS放大器 意大利TOS益流阀
手机靓号出售500以内976、RE-456、SLW-005、TOS-051、ARMD-964、MADV-105、MAMA-108、KBKD-514、CJD-005、MARD-218、DYM-028、
004、DOKS-078、TOS-057、DBZG-022、DJNI-029、DIR-009、DJNO-067、DJNI-028、DKSW-154、DIR-006、DGKD-251
lid-029xt=urn:btih:01c608d3f449c4b8ec97e54c921f5915d7da70b8 MXGS-839.avi 1307.16 MB MXGS-839 本站